Time;durP1;ratioP1;P1;durP2;ratioP2;P2;SDS_P1;SDS_P2;PMS_P1;PMS_P2;Temp;Humidity;BMP_temperature;BMP_pressure;BME280_temperature;BME280_humidity;BME280_pressure;Samples;Min_cycle;Max_cycle;Signal;HPM_P1;HPM_P2
2021/05/04 00:00:00;;;;;;;9.00;6.93;;;;;;;5.64;83.49;95804.50;1048195;28;20027;-66
2021/05/04 00:00:31;;;;;;;12.57;7.23;;;;;;;5.59;82.99;95806.28;1048440;28;20013;-67
2021/05/04 00:01:01;;;;;;;10.27;7.27;;;;;;;5.56;83.20;95804.91;1052446;28;20024;-67
2021/05/04 00:01:32;;;;;;;11.40;6.43;;;;;;;5.59;83.16;95814.25;1052536;28;20069;-67
2021/05/04 00:02:03;;;;;;;10.27;6.87;;;;;;;5.60;82.91;95811.34;1052834;28;20012;-66
2021/05/04 00:02:33;;;;;;;10.85;7.10;;;;;;;5.58;83.31;95792.22;1052805;28;20055;-66
2021/05/04 00:03:04;;;;;;;9.57;7.20;;;;;;;5.51;83.15;95804.03;1052818;28;20027;-66
2021/05/04 00:03:34;;;;;;;8.40;6.60;;;;;;;5.51;83.07;95799.53;1052672;28;20100;-66
2021/05/04 00:04:05;;;;;;;13.23;6.77;;;;;;;5.54;83.12;95798.25;1052712;28;20020;-66
2021/05/04 00:04:35;;;;;;;10.47;6.87;;;;;;;5.51;83.29;95799.53;1052761;28;20024;-66
2021/05/04 00:05:06;;;;;;;8.07;6.20;;;;;;;5.46;83.32;95802.91;1052769;28;20020;-66
2021/05/04 00:05:36;;;;;;;10.17;7.00;;;;;;;5.48;83.44;95800.03;1052685;28;20038;-66
2021/05/04 00:06:07;;;;;;;8.90;6.70;;;;;;;5.49;83.00;95798.97;1052598;28;20012;-67
2021/05/04 00:06:37;;;;;;;12.20;7.33;;;;;;;5.50;83.61;95792.63;1052218;28;20040;-66
2021/05/04 00:07:07;;;;;;;12.00;6.47;;;;;;;5.47;83.24;95801.84;1052370;28;20459;-66
2021/05/04 00:07:38;;;;;;;10.57;6.40;;;;;;;5.43;83.38;95797.31;1048220;28;20028;-66
2021/05/04 00:08:08;;;;;;;9.10;6.37;;;;;;;5.40;83.72;95801.22;1048277;28;20032;-67
2021/05/04 00:08:39;;;;;;;8.83;6.83;;;;;;;5.39;83.64;95793.53;1052436;28;20028;-66
2021/05/04 00:09:09;;;;;;;9.73;6.53;;;;;;;5.42;83.87;95801.78;1052496;28;20073;-66
2021/05/04 00:09:39;;;;;;;9.00;6.50;;;;;;;5.43;83.58;95792.00;1056692;28;20076;-66
2021/05/04 00:10:10;;;;;;;9.13;6.47;;;;;;;5.45;83.55;95790.69;1056666;28;20027;-67
2021/05/04 00:10:41;;;;;;;10.47;6.63;;;;;;;5.40;83.89;95800.41;1056553;28;20464;-66
2021/05/04 00:11:11;;;;;;;9.67;7.03;;;;;;;5.41;83.88;95794.88;1056472;28;20019;-66
2021/05/04 00:11:41;;;;;;;9.00;6.37;;;;;;;5.43;83.80;95794.66;1052841;28;20085;-66
2021/05/04 00:12:12;;;;;;;11.13;6.57;;;;;;;5.40;83.53;95790.63;1052787;28;20438;-67
2021/05/04 00:12:42;;;;;;;9.83;7.00;;;;;;;5.41;84.07;95786.91;1052765;28;20069;-66
2021/05/04 00:13:13;;;;;;;8.53;6.93;;;;;;;5.42;83.78;95791.16;1052846;28;20476;-66
2021/05/04 00:13:43;;;;;;;10.13;6.57;;;;;;;5.41;83.47;95786.91;1052733;28;20031;-66
2021/05/04 00:14:13;;;;;;;11.40;6.47;;;;;;;5.42;83.76;95787.72;1052822;28;20020;-67
2021/05/04 00:14:44;;;;;;;8.40;6.33;;;;;;;5.41;83.85;95786.91;1052702;28;20027;-66
2021/05/04 00:15:14;;;;;;;9.37;7.00;;;;;;;5.43;83.68;95789.34;1052409;28;20023;-67
2021/05/04 00:15:45;;;;;;;9.30;6.93;;;;;;;5.42;83.18;95783.22;1052422;28;20036;-66
2021/05/04 00:16:15;;;;;;;11.13;6.80;;;;;;;5.40;83.64;95789.81;1052344;28;20027;-66
2021/05/04 00:16:46;;;;;;;10.83;6.80;;;;;;;5.38;83.69;95783.97;1052472;28;20171;-66
2021/05/04 00:17:16;;;;;;;9.70;6.80;;;;;;;5.40;83.50;95784.53;1052795;28;20437;-66
2021/05/04 00:17:47;;;;;;;10.47;7.03;;;;;;;5.37;83.58;95782.34;1052724;28;20039;-66
2021/05/04 00:18:17;;;;;;;10.33;7.07;;;;;;;5.31;83.90;95781.47;1052747;28;20046;-66
2021/05/04 00:18:47;;;;;;;9.20;6.80;;;;;;;5.35;83.86;95777.28;1052738;28;20077;-66
2021/05/04 00:19:18;;;;;;;9.90;7.07;;;;;;;5.36;84.19;95775.44;1052755;28;20427;-67
2021/05/04 00:19:48;;;;;;;10.30;6.77;;;;;;;5.36;84.16;95780.75;1052713;28;20036;-66
2021/05/04 00:20:19;;;;;;;9.40;7.17;;;;;;;5.37;83.92;95779.69;1052738;28;20051;-66
2021/05/04 00:20:49;;;;;;;8.53;6.33;;;;;;;5.36;83.78;95781.53;1052827;28;20039;-67
2021/05/04 00:21:19;;;;;;;12.67;7.43;;;;;;;5.35;83.67;95779.94;1052587;28;20042;-67
2021/05/04 00:21:50;;;;;;;11.30;7.00;;;;;;;5.33;83.55;95787.34;1052678;28;20028;-66
2021/05/04 00:22:20;;;;;;;10.10;7.03;;;;;;;5.32;83.99;95775.09;1052755;28;20457;-66
2021/05/04 00:22:51;;;;;;;9.30;7.00;;;;;;;5.22;84.48;95775.78;1052782;28;20039;-66
2021/05/04 00:23:21;;;;;;;12.93;7.37;;;;;;;5.25;84.26;95779.78;1052727;28;20030;-66
2021/05/04 00:23:51;;;;;;;10.37;7.40;;;;;;;5.25;84.36;95776.34;1052574;28;20024;-66
2021/05/04 00:24:22;;;;;;;10.30;7.20;;;;;;;5.30;84.23;95776.41;1052802;28;20032;-66
2021/05/04 00:24:52;;;;;;;9.17;6.90;;;;;;;5.27;84.17;95772.38;1052857;28;20024;-66
2021/05/04 00:25:23;;;;;;;9.50;6.97;;;;;;;5.28;84.10;95778.50;1052747;28;20384;-66
2021/05/04 00:25:53;;;;;;;11.60;7.30;;;;;;;5.29;84.00;95777.47;1052725;28;20028;-66
2021/05/04 00:26:24;;;;;;;9.73;7.47;;;;;;;5.22;84.27;95780.28;1052727;28;20388;-66
2021/05/04 00:26:54;;;;;;;10.83;7.57;;;;;;;5.24;84.29;95772.09;1052694;28;20431;-66
2021/05/04 00:27:25;;;;;;;8.27;6.57;;;;;;;5.27;84.26;95771.59;1052652;28;20028;-66
2021/05/04 00:27:55;;;;;;;11.07;7.33;;;;;;;5.25;84.35;95769.19;1052672;28;20028;-66
2021/05/04 00:28:25;;;;;;;10.17;7.17;;;;;;;5.28;84.23;95762.63;1052739;28;20027;-66
2021/05/04 00:28:56;;;;;;;9.50;6.70;;;;;;;5.30;84.05;95781.72;1052789;28;20032;-66
2021/05/04 00:29:26;;;;;;;9.47;7.40;;;;;;;5.29;84.38;95775.63;1052770;28;20386;-66
2021/05/04 00:29:57;;;;;;;12.37;7.40;;;;;;;5.31;84.58;95770.88;1052707;28;20472;-66
2021/05/04 00:30:27;;;;;;;10.00;7.40;;;;;;;5.28;84.49;95768.72;1052668;28;20020;-67
2021/05/04 00:30:58;;;;;;;12.77;7.30;;;;;;;5.29;83.84;95774.81;1052717;28;20119;-66
2021/05/04 00:31:28;;;;;;;10.73;7.83;;;;;;;5.29;83.67;95770.31;1052670;28;20020;-66
2021/05/04 00:31:58;;;;;;;9.13;7.07;;;;;;;5.25;84.16;95771.03;1052660;28;20035;-66
2021/05/04 00:32:29;;;;;;;8.47;6.70;;;;;;;5.29;83.95;95775.63;1052641;28;20028;-66
2021/05/04 00:33:01;;;;;;;10.67;7.93;;;;;;;5.28;84.11;95766.06;1052761;28;20032;-66
2021/05/04 00:33:31;;;;;;;8.55;7.05;;;;;;;5.29;83.93;95766.88;1052685;28;20469;-67
2021/05/04 00:34:01;;;;;;;11.40;8.07;;;;;;;5.28;84.04;95768.72;1052715;28;20031;-66
2021/05/04 00:34:32;;;;;;;11.70;7.40;;;;;;;5.29;83.84;95764.22;1052621;28;20047;-66
2021/05/04 00:35:03;;;;;;;10.10;8.07;;;;;;;5.31;83.92;95762.13;1052731;28;20028;-66
2021/05/04 00:35:33;;;;;;;11.27;7.50;;;;;;;5.25;83.90;95765.72;1052471;28;20377;-66
2021/05/04 00:36:04;;;;;;;11.20;7.57;;;;;;;5.22;83.95;95761.75;1052222;28;20032;-66
2021/05/04 00:36:34;;;;;;;12.13;7.93;;;;;;;5.15;84.86;95764.53;1052469;28;20016;-67
2021/05/04 00:37:05;;;;;;;11.67;7.10;;;;;;;5.17;84.76;95761.66;1052695;28;20027;-66
2021/05/04 00:37:35;;;;;;;10.33;7.40;;;;;;;5.11;84.80;95767.91;1052391;28;20039;-66
2021/05/04 00:38:06;;;;;;;12.13;7.83;;;;;;;5.10;84.51;95761.78;1052366;28;20487;-66
2021/05/04 00:38:36;;;;;;;9.53;7.50;;;;;;;5.11;84.73;95762.59;1052316;28;20031;-66
2021/05/04 00:39:06;;;;;;;11.90;8.00;;;;;;;5.09;84.91;95757.53;1052362;28;20035;-66
2021/05/04 00:39:38;;;;;;;10.63;7.33;;;;;;;5.12;84.59;95765.03;1052476;28;20043;-66
2021/05/04 00:40:09;;;;;;;12.73;7.70;;;;;;;5.13;84.68;95761.31;1052641;28;20035;-66
2021/05/04 00:40:39;;;;;;;9.40;7.78;;;;;;;5.13;84.48;95758.69;1052217;28;20024;-66
2021/05/04 00:41:09;;;;;;;10.23;7.07;;;;;;;5.10;84.63;95756.50;1052618;28;20023;-66
2021/05/04 00:41:40;;;;;;;9.80;7.03;;;;;;;5.06;84.55;95757.22;1052720;28;20397;-66
2021/05/04 00:42:10;;;;;;;8.87;7.30;;;;;;;5.08;84.55;95755.16;1052687;28;20069;-66
2021/05/04 00:42:41;;;;;;;9.40;7.40;;;;;;;5.11;84.55;95762.59;1052609;28;20426;-66
2021/05/04 00:43:11;;;;;;;10.70;7.90;;;;;;;5.07;84.87;95753.56;1052577;28;20602;-66
2021/05/04 00:43:41;;;;;;;9.53;7.37;;;;;;;5.08;84.77;95758.59;1052738;28;20036;-66
2021/05/04 00:44:12;;;;;;;9.63;7.47;;;;;;;5.03;84.51;95755.06;1052632;28;20031;-66
2021/05/04 00:44:42;;;;;;;10.50;7.60;;;;;;;5.07;84.54;95754.34;1052724;28;20370;-66
2021/05/04 00:45:13;;;;;;;10.17;7.70;;;;;;;5.06;84.61;95750.06;1052662;28;20469;-66
2021/05/04 00:45:43;;;;;;;11.43;7.40;;;;;;;5.03;84.96;95757.72;1052045;28;20039;-66
2021/05/04 00:46:14;;;;;;;9.67;7.57;;;;;;;5.04;85.27;95754.00;1052276;28;20106;-67
2021/05/04 00:46:45;;;;;;;14.17;7.97;;;;;;;5.04;84.88;95746.06;1052274;28;20019;-66
2021/05/04 00:47:15;;;;;;;10.23;7.72;;;;;;;5.07;84.74;95751.69;1052326;28;20031;-66
2021/05/04 00:47:45;;;;;;;10.43;7.87;;;;;;;5.10;85.10;95755.69;1052675;28;20034;-66
2021/05/04 00:48:16;;;;;;;8.57;7.33;;;;;;;5.03;85.24;95749.78;1052591;28;20020;-66
2021/05/04 00:48:46;;;;;;;10.20;8.03;;;;;;;5.02;85.16;95746.31;1052562;28;20472;-66
2021/05/04 00:49:17;;;;;;;8.83;7.20;;;;;;;5.02;84.73;95742.88;1052179;28;20012;-66
2021/05/04 00:49:47;;;;;;;11.30;7.30;;;;;;;4.98;85.28;95747.84;1048040;28;20380;-66
2021/05/04 00:50:17;;;;;;;9.60;7.73;;;;;;;4.98;85.15;95744.38;1048189;28;20047;-66
2021/05/04 00:50:48;;;;;;;12.43;7.70;;;;;;;4.94;85.34;95738.75;1048178;28;20043;-66
2021/05/04 00:51:20;;;;;;;10.83;7.80;;;;;;;4.93;85.60;95750.41;1052250;28;20104;-66
2021/05/04 00:51:50;;;;;;;11.60;7.82;;;;;;;4.92;85.57;95743.50;1052236;28;20101;-66
2021/05/04 00:52:21;;;;;;;10.27;7.27;;;;;;;4.91;85.21;95737.41;1044031;28;20075;-66
2021/05/04 00:52:51;;;;;;;8.77;7.20;;;;;;;4.95;85.37;95743.00;1039849;28;20017;-66
2021/05/04 00:53:22;;;;;;;10.97;7.93;;;;;;;4.93;85.58;95737.97;1035903;28;20483;-66
2021/05/04 00:53:52;;;;;;;10.70;7.70;;;;;;;4.92;85.57;95736.38;1040077;28;20467;-67
2021/05/04 00:54:24;;;;;;;10.60;7.53;;;;;;;4.95;85.03;95738.50;1048236;28;20021;-66
2021/05/04 00:54:56;;;;;;;9.38;7.50;;;;;;;4.90;85.40;95741.06;1047902;28;20591;-66
2021/05/04 00:55:26;;;;;;;10.50;7.00;;;;;;;4.92;85.74;95732.91;1052691;28;20514;-66
2021/05/04 00:56:00;;;;;;;12.33;8.23;;;;;;;4.93;85.66;95739.81;1056193;28;20031;-66
2021/05/04 00:56:30;;;;;;;10.80;8.20;;;;;;;4.94;85.55;95730.81;1056454;28;20058;-66
2021/05/04 00:57:00;;;;;;;9.37;7.80;;;;;;;4.95;85.63;95735.88;1048005;28;20025;-66
2021/05/04 00:57:32;;;;;;;9.97;7.60;;;;;;;4.88;85.71;95734.44;1048051;28;20029;-67
2021/05/04 00:58:02;;;;;;;10.90;8.30;;;;;;;4.91;85.87;95736.59;1048000;28;20020;-67
2021/05/04 00:58:34;;;;;;;10.83;7.93;;;;;;;4.91;85.75;95732.13;1048240;28;20021;-66
2021/05/04 00:59:04;;;;;;;11.07;8.15;;;;;;;4.88;85.66;95731.78;1052191;28;20032;-66
2021/05/04 00:59:36;;;;;;;11.07;8.37;;;;;;;4.92;85.78;95732.91;1048158;28;20111;-66
2021/05/04 01:00:07;;;;;;;10.52;7.68;;;;;;;4.88;85.78;95737.06;1048036;28;20020;-66
2021/05/04 01:00:37;;;;;;;9.68;7.72;;;;;;;4.80;85.82;95732.16;1048196;28;20013;-66
2021/05/04 01:01:08;;;;;;;11.47;8.17;;;;;;;4.75;86.34;95727.59;1048374;28;20063;-66
2021/05/04 01:01:38;;;;;;;10.03;7.93;;;;;;;4.69;86.63;95734.63;1052203;28;20032;-66
2021/05/04 01:02:08;;;;;;;11.50;8.27;;;;;;;4.70;86.68;95733.59;1052189;28;20027;-66
2021/05/04 01:02:40;;;;;;;9.60;7.70;;;;;;;4.69;86.88;95737.28;1052288;28;20105;-66
2021/05/04 01:03:11;;;;;;;11.93;7.63;;;;;;;4.59;86.97;95728.38;1044039;28;20028;-67
2021/05/04 01:03:41;;;;;;;10.33;8.43;;;;;;;4.67;86.81;95728.78;1048020;28;20326;-66
2021/05/04 01:04:12;;;;;;;11.20;8.30;;;;;;;4.72;86.68;95733.38;1043804;28;20017;-66
2021/05/04 01:04:43;;;;;;;11.13;8.00;;;;;;;4.64;87.07;95728.47;1044325;28;20470;-66
2021/05/04 01:05:13;;;;;;;11.37;7.57;;;;;;;4.71;87.13;95726.47;1052264;28;20576;-66
2021/05/04 01:05:43;;;;;;;10.73;7.80;;;;;;;4.78;86.92;95726.31;1052242;28;20615;-66
2021/05/04 01:06:14;;;;;;;9.83;7.90;;;;;;;4.78;87.26;95731.63;1052565;28;20016;-67
2021/05/04 01:06:44;;;;;;;12.20;7.47;;;;;;;4.80;86.60;95721.56;1052662;28;20024;-66
2021/05/04 01:07:15;;;;;;;9.80;7.57;;;;;;;4.79;86.53;95723.41;1052275;28;20031;-66
2021/05/04 01:07:45;;;;;;;11.80;7.53;;;;;;;4.70;86.78;95727.50;1052275;28;20031;-66
2021/05/04 01:08:16;;;;;;;9.97;7.57;;;;;;;4.70;86.88;95725.66;1052192;28;20028;-66
2021/05/04 01:08:46;;;;;;;10.07;7.50;;;;;;;4.67;86.73;95726.16;1052279;28;20066;-66
2021/05/04 01:09:16;;;;;;;10.30;7.83;;;;;;;4.70;86.47;95712.41;1052605;28;20069;-66
2021/05/04 01:09:47;;;;;;;9.67;7.70;;;;;;;4.67;86.75;95723.50;1052187;28;20123;-66
2021/05/04 01:10:17;;;;;;;11.90;7.93;;;;;;;4.59;87.21;95718.59;1052148;28;20121;-66
2021/05/04 01:10:48;;;;;;;9.00;7.40;;;;;;;4.52;87.94;95717.94;1047911;28;20016;-66
2021/05/04 01:11:18;;;;;;;11.47;7.90;;;;;;;4.55;87.80;95716.66;1048087;28;20020;-66
2021/05/04 01:11:49;;;;;;;8.73;7.57;;;;;;;4.59;87.39;95717.78;1052218;28;20373;-66
2021/05/04 01:12:19;;;;;;;9.37;7.43;;;;;;;4.60;87.59;95717.53;1048037;28;20031;-66
2021/05/04 01:12:50;;;;;;;10.83;7.87;;;;;;;4.59;87.52;95717.78;1052208;28;20031;-66
2021/05/04 01:13:20;;;;;;;8.40;7.47;;;;;;;4.51;87.86;95719.00;1047926;28;20016;-67
2021/05/04 01:13:51;;;;;;;9.60;7.73;;;;;;;4.52;88.21;95710.00;1048232;28;20082;-67
2021/05/04 01:14:23;;;;;;;8.43;7.03;;;;;;;4.53;88.03;95714.25;1052220;28;20054;-66
2021/05/04 01:14:53;;;;;;;9.48;7.47;;;;;;;4.53;87.79;95706.31;1052309;28;20020;-66
2021/05/04 01:15:24;;;;;;;9.87;7.53;;;;;;;4.47;88.07;95714.41;1052478;28;20029;-66
2021/05/04 01:15:54;;;;;;;11.83;7.83;;;;;;;4.51;87.82;95713.69;1052499;28;20024;-65
2021/05/04 01:16:24;;;;;;;9.63;7.20;;;;;;;4.53;87.85;95703.66;1052571;28;20031;-66
2021/05/04 01:16:55;;;;;;;9.03;7.57;;;;;;;4.53;87.90;95708.97;1052544;28;20031;-66
2021/05/04 01:17:25;;;;;;;11.27;8.00;;;;;;;4.53;88.15;95713.44;1050184;28;20035;-66
2021/05/04 01:17:56;;;;;;;10.53;7.90;;;;;;;4.51;87.62;95711.03;1052487;28;20800;-66
2021/05/04 01:18:27;;;;;;;12.00;7.60;;;;;;;4.53;88.04;95708.16;1052276;28;20027;-67
2021/05/04 01:18:57;;;;;;;10.17;7.57;;;;;;;4.53;88.11;95713.44;1052631;28;20035;-66
2021/05/04 01:19:27;;;;;;;10.60;7.80;;;;;;;4.52;88.11;95710.00;1052376;28;20085;-66
2021/05/04 01:19:58;;;;;;;9.73;7.83;;;;;;;4.55;87.91;95712.16;1052525;28;20400;-67
2021/05/04 01:20:28;;;;;;;8.80;7.33;;;;;;;4.52;87.90;95707.34;1052081;28;20020;-67
2021/05/04 01:20:59;;;;;;;9.50;8.00;;;;;;;4.49;88.16;95707.81;1052317;28;20016;-66
2021/05/04 01:21:29;;;;;;;8.70;7.33;;;;;;;4.44;88.61;95713.03;1052111;28;20377;-66
2021/05/04 01:22:00;;;;;;;9.03;7.07;;;;;;;4.40;88.38;95706.59;1052121;28;20437;-66
2021/05/04 01:22:30;;;;;;;11.07;8.07;;;;;;;4.30;89.23;95703.75;1052436;28;20025;-67
2021/05/04 01:23:00;;;;;;;8.80;7.33;;;;;;;4.31;88.96;95708.03;1052257;28;20028;-66
2021/05/04 01:23:31;;;;;;;11.30;7.70;;;;;;;4.31;88.70;95708.84;1052212;28;20031;-66
2021/05/04 01:24:01;;;;;;;10.40;7.73;;;;;;;4.35;89.01;95706.50;1052137;28;20017;-67
2021/05/04 01:24:32;;;;;;;9.47;7.37;;;;;;;4.38;89.13;95708.69;1051934;28;20163;-67
2021/05/04 01:25:04;;;;;;;9.13;7.50;;;;;;;4.37;88.51;95701.78;1052434;28;20377;-66
2021/05/04 01:25:34;;;;;;;9.82;7.78;;;;;;;4.37;88.99;95702.59;1052355;28;20028;-66
2021/05/04 01:26:05;;;;;;;12.10;7.53;;;;;;;4.36;88.84;95701.00;1056158;28;20365;-66
2021/05/04 01:26:35;;;;;;;9.50;7.97;;;;;;;4.43;88.90;95708.78;1056363;28;20019;-66
2021/05/04 01:27:06;;;;;;;10.50;7.57;;;;;;;4.47;88.72;95711.75;1056450;28;20027;-68
2021/05/04 01:27:37;;;;;;;10.18;7.78;;;;;;;4.45;88.66;95701.38;1056328;28;20024;-66
2021/05/04 01:28:07;;;;;;;9.97;7.10;;;;;;;4.36;88.62;95705.50;1052575;28;20389;-66
2021/05/04 01:28:38;;;;;;;8.10;6.90;;;;;;;4.36;88.45;95703.63;1052572;28;20089;-67
2021/05/04 01:29:08;;;;;;;10.37;7.87;;;;;;;4.33;88.65;95708.59;1052483;28;20468;-66
2021/05/04 01:29:38;;;;;;;9.13;7.50;;;;;;;4.37;89.10;95709.72;1052566;28;20028;-67
2021/05/04 01:30:09;;;;;;;10.93;7.63;;;;;;;4.30;88.99;95704.59;1052485;28;20020;-66
2021/05/04 01:30:40;;;;;;;10.73;7.75;;;;;;;4.32;89.14;95696.41;1052363;28;20073;-67
2021/05/04 01:31:10;;;;;;;9.53;7.63;;;;;;;4.34;88.94;95703.06;1052442;28;20096;-67
2021/05/04 01:31:41;;;;;;;11.07;7.93;;;;;;;4.32;89.02;95693.78;1052500;28;20028;-66
2021/05/04 01:32:13;;;;;;;9.17;7.00;;;;;;;4.32;88.98;95701.69;1052499;28;20415;-66
2021/05/04 01:32:43;;;;;;;10.20;7.85;;;;;;;4.23;89.30;95697.81;1052495;28;20028;-66
2021/05/04 01:33:14;;;;;;;10.67;7.60;;;;;;;4.20;89.70;95698.28;1052493;28;20066;-66
2021/05/04 01:33:44;;;;;;;9.53;7.53;;;;;;;4.23;89.92;95698.63;1052179;28;20028;-66
2021/05/04 01:34:15;;;;;;;10.20;7.40;;;;;;;4.18;89.78;95696.69;1047979;28;20017;-66
2021/05/04 01:34:45;;;;;;;10.07;7.77;;;;;;;4.20;89.53;95700.94;1047934;28;20020;-67
2021/05/04 01:35:16;;;;;;;10.13;7.30;;;;;;;4.23;89.34;95700.47;1048031;28;20009;-67
2021/05/04 01:35:46;;;;;;;8.60;7.27;;;;;;;4.28;89.32;95700.56;1052201;28;20028;-67
2021/05/04 01:36:17;;;;;;;10.47;7.90;;;;;;;4.26;89.58;95697.38;1052410;28;20028;-67
2021/05/04 01:36:47;;;;;;;9.60;7.60;;;;;;;4.25;89.32;95695.72;1052464;28;20020;-66
2021/05/04 01:37:18;;;;;;;9.43;7.73;;;;;;;4.25;89.48;95693.09;1052436;28;20111;-66
2021/05/04 01:37:48;;;;;;;10.30;8.00;;;;;;;4.26;89.07;95697.38;1052474;28;20024;-66
2021/05/04 01:38:18;;;;;;;10.30;7.80;;;;;;;4.26;89.38;95700.81;1052485;28;20020;-66
2021/05/04 01:38:49;;;;;;;9.70;7.30;;;;;;;4.20;89.45;95693.81;1052459;28;20480;-66
2021/05/04 01:39:19;;;;;;;9.27;7.03;;;;;;;4.20;89.25;95693.00;1052504;28;20473;-66
2021/05/04 01:39:50;;;;;;;8.57;7.27;;;;;;;4.24;89.62;95692.28;1052347;28;20035;-67
2021/05/04 01:40:20;;;;;;;10.35;7.60;;;;;;;4.22;89.94;95691.72;1052037;28;20023;-66
2021/05/04 01:40:51;;;;;;;8.90;7.10;;;;;;;4.20;89.57;95693.00;1052096;28;20040;-66
2021/05/04 01:41:21;;;;;;;10.30;7.57;;;;;;;4.17;89.45;95692.44;1052124;28;20028;-66
2021/05/04 01:41:52;;;;;;;9.83;7.70;;;;;;;4.11;90.05;95688.09;1052479;28;20020;-66
2021/05/04 01:42:22;;;;;;;11.63;7.90;;;;;;;4.12;89.71;95697.63;1052455;28;20451;-67
2021/05/04 01:42:53;;;;;;;11.80;7.93;;;;;;;4.05;89.96;95683.75;1052492;28;20028;-66
2021/05/04 01:43:23;;;;;;;12.83;7.77;;;;;;;4.09;90.30;95695.44;1052448;28;20081;-66
2021/05/04 01:43:53;;;;;;;10.40;7.80;;;;;;;4.08;90.81;95693.06;1052489;28;20081;-66
2021/05/04 01:44:24;;;;;;;10.80;7.70;;;;;;;4.10;90.07;95685.69;1052457;28;20424;-66
2021/05/04 01:44:54;;;;;;;9.27;6.70;;;;;;;4.09;90.60;95692.81;1052470;28;20092;-66
2021/05/04 01:45:25;;;;;;;9.73;7.17;;;;;;;4.04;90.37;95687.44;1051988;28;20074;-66
2021/05/04 01:45:55;;;;;;;9.33;7.33;;;;;;;4.00;90.58;95686.31;1052030;28;20059;-66
2021/05/04 01:46:26;;;;;;;12.37;8.27;;;;;;;4.08;90.18;95680.63;1052209;28;20043;-66
2021/05/04 01:46:56;;;;;;;9.93;7.70;;;;;;;4.11;90.03;95684.66;1052205;28;20020;-66
2021/05/04 01:47:26;;;;;;;10.17;6.90;;;;;;;4.10;90.16;95685.69;1052729;28;20042;-67
2021/05/04 01:47:57;;;;;;;11.20;7.23;;;;;;;4.12;89.95;95680.97;1053199;28;20026;-67
2021/05/04 01:48:27;;;;;;;9.83;7.73;;;;;;;4.13;89.90;95682.56;1052831;28;20031;-66
2021/05/04 01:49:02;;;;;;;9.77;7.77;;;;;;;4.15;89.71;95683.94;1053241;28;20046;-66
2021/05/04 01:49:33;;;;;;;9.38;7.38;;;;;;;4.12;89.56;95679.13;1052798;28;20163;-66
2021/05/04 01:50:04;;;;;;;11.30;7.70;;;;;;;4.11;90.25;95680.16;1052948;28;20051;-66
2021/05/04 01:50:34;;;;;;;12.20;7.70;;;;;;;4.13;90.29;95691.31;1052984;28;20053;-66
2021/05/04 01:51:05;;;;;;;9.37;7.20;;;;;;;4.17;89.98;95683.72;1053060;28;20434;-66
2021/05/04 01:51:37;;;;;;;10.43;7.63;;;;;;;4.15;90.06;95678.66;1053294;28;20016;-66
2021/05/04 01:52:09;;;;;;;9.05;7.00;;;;;;;4.21;89.86;95678.75;1053307;28;20020;-66
2021/05/04 01:52:39;;;;;;;9.23;7.32;;;;;;;4.16;89.79;95682.09;1053300;28;20031;-67
2021/05/04 01:53:09;;;;;;;10.60;7.27;;;;;;;4.20;89.50;95682.41;1053395;28;20035;-67
2021/05/04 01:53:40;;;;;;;9.80;7.37;;;;;;;4.07;89.75;95678.22;1053221;28;20030;-66
2021/05/04 01:54:10;;;;;;;10.47;6.90;;;;;;;4.08;89.93;95680.63;1052880;28;20358;-66
2021/05/04 01:54:42;;;;;;;9.83;7.13;;;;;;;4.12;90.14;95684.41;1053001;28;20495;-66
2021/05/04 01:55:13;;;;;;;9.80;7.00;;;;;;;4.02;89.92;95678.94;1052896;28;20020;-66
2021/05/04 01:55:44;;;;;;;8.67;7.10;;;;;;;4.04;90.90;95676.84;1052797;28;20031;-66
2021/05/04 01:56:14;;;;;;;9.10;7.40;;;;;;;4.10;90.19;95683.88;1053264;28;20031;-66
2021/05/04 01:56:44;;;;;;;9.53;7.37;;;;;;;4.07;90.15;95679.03;1053322;28;20032;-66
2021/05/04 01:57:15;;;;;;;10.97;7.37;;;;;;;4.00;90.49;95677.59;1053304;28;20023;-66
2021/05/04 01:57:45;;;;;;;10.73;6.93;;;;;;;3.97;90.25;95678.84;1053228;28;20427;-66
2021/05/04 01:58:17;;;;;;;9.27;7.10;;;;;;;3.90;91.06;95686.13;1053347;28;20464;-66
2021/05/04 01:58:48;;;;;;;9.18;7.68;;;;;;;3.97;91.01;95684.13;1053233;28;20032;-66
2021/05/04 01:59:20;;;;;;;8.77;7.10;;;;;;;4.03;90.69;95683.19;1053264;28;20318;-66
2021/05/04 01:59:50;;;;;;;15.60;7.60;;;;;;;4.08;90.55;95682.47;1053238;28;20799;-66
2021/05/04 02:00:20;;;;;;;10.10;7.63;;;;;;;4.11;90.17;95674.09;1053215;28;20058;-66
2021/05/04 02:00:51;;;;;;;9.73;7.43;;;;;;;4.08;89.63;95675.34;1053183;28;20077;-66
2021/05/04 02:01:21;;;;;;;10.10;7.17;;;;;;;4.12;89.68;95680.97;1053183;28;20043;-66
2021/05/04 02:01:52;;;;;;;10.53;7.70;;;;;;;4.14;89.49;95674.38;1053243;28;20480;-66
2021/05/04 02:02:22;;;;;;;9.77;7.47;;;;;;;3.99;90.49;95675.94;1053256;28;20465;-67
2021/05/04 02:02:52;;;;;;;8.37;6.80;;;;;;;4.07;90.96;95671.09;1053219;28;20434;-66
2021/05/04 02:03:23;;;;;;;9.67;7.23;;;;;;;4.07;90.79;95679.03;1053210;28;20036;-66
2021/05/04 02:03:53;;;;;;;10.00;7.57;;;;;;;4.10;90.51;95677.78;1053182;28;20381;-66
2021/05/04 02:04:24;;;;;;;8.63;6.87;;;;;;;4.03;90.45;95680.53;1053249;28;20406;-66
2021/05/04 02:04:55;;;;;;;9.55;7.18;;;;;;;4.04;90.14;95682.13;1053224;28;20032;-66
2021/05/04 02:05:25;;;;;;;9.20;7.13;;;;;;;4.00;90.38;95681.03;1053240;28;20036;-66
2021/05/04 02:05:55;;;;;;;10.07;7.10;;;;;;;4.01;90.58;95673.88;1053194;28;20024;-66
2021/05/04 02:06:26;;;;;;;10.30;7.33;;;;;;;4.04;90.13;95668.13;1053214;28;20422;-66
2021/05/04 02:06:57;;;;;;;10.80;7.13;;;;;;;3.99;90.25;95674.09;1052819;28;20469;-67
2021/05/04 02:07:28;;;;;;;9.20;7.07;;;;;;;3.96;90.58;95674.59;1048624;28;20071;-66
2021/05/04 02:07:58;;;;;;;9.27;7.17;;;;;;;4.01;91.06;95666.75;1048714;28;20028;-66
2021/05/04 02:08:28;;;;;;;8.80;7.33;;;;;;;4.03;90.65;95671.81;1048900;28;20024;-66
2021/05/04 02:08:59;;;;;;;9.10;6.90;;;;;;;4.04;90.36;95668.13;1052935;28;20020;-67
2021/05/04 02:09:30;;;;;;;10.40;7.17;;;;;;;4.07;90.16;95672.94;1053272;28;20023;-67
2021/05/04 02:10:01;;;;;;;8.85;6.78;;;;;;;4.04;90.17;95668.13;1057127;28;20020;-66
2021/05/04 02:10:31;;;;;;;8.30;6.87;;;;;;;3.97;89.95;95667.47;1057054;28;20019;-66
2021/05/04 02:11:02;;;;;;;8.33;6.63;;;;;;;3.91;90.65;95674.50;1056913;28;20027;-66
2021/05/04 02:11:32;;;;;;;12.60;7.10;;;;;;;4.01;90.42;95665.97;1057057;28;20058;-66
2021/05/04 02:12:03;;;;;;;10.27;7.27;;;;;;;4.00;90.38;95672.28;1053178;28;20557;-66
2021/05/04 02:12:33;;;;;;;10.83;7.37;;;;;;;4.05;90.14;95669.75;1053198;28;20381;-66
2021/05/04 02:13:04;;;;;;;9.40;7.17;;;;;;;4.04;90.21;95668.91;1053184;28;20020;-66
2021/05/04 02:13:34;;;;;;;9.20;7.07;;;;;;;4.05;90.22;95667.91;1052867;28;20385;-66
2021/05/04 02:14:05;;;;;;;8.70;7.20;;;;;;;4.09;90.32;95668.22;1052852;28;20493;-66
2021/05/04 02:14:36;;;;;;;11.02;7.20;;;;;;;4.11;89.86;95660.84;1048656;28;20124;-66
2021/05/04 02:15:07;;;;;;;9.90;7.60;;;;;;;4.09;89.86;95666.34;1048912;28;20033;-66
2021/05/04 02:15:37;;;;;;;9.35;6.80;;;;;;;4.12;89.65;95657.16;1052911;28;20420;-66
2021/05/04 02:16:08;;;;;;;10.10;7.10;;;;;;;4.13;89.75;95656.13;1052881;28;20039;-66
2021/05/04 02:16:38;;;;;;;9.63;6.93;;;;;;;4.11;89.57;95658.22;1053183;28;20020;-66
2021/05/04 02:17:09;;;;;;;8.33;6.67;;;;;;;4.07;89.74;95657.88;1053255;28;20016;-66
2021/05/04 02:17:39;;;;;;;9.67;6.70;;;;;;;4.06;89.76;95656.28;1052900;28;20106;-66
2021/05/04 02:18:09;;;;;;;7.57;6.23;;;;;;;4.12;90.21;95659.81;1052925;28;20069;-66
2021/05/04 02:18:40;;;;;;;10.30;6.87;;;;;;;4.10;89.89;95657.41;1052902;28;20373;-66
2021/05/04 02:19:10;;;;;;;10.83;7.10;;;;;;;4.08;90.29;95654.19;1052867;28;20035;-66
2021/05/04 02:19:41;;;;;;;8.93;6.80;;;;;;;4.04;89.92;95662.81;1053140;28;20507;-66
2021/05/04 02:20:12;;;;;;;10.17;7.60;;;;;;;4.03;90.12;95658.56;1053139;28;20027;-66
2021/05/04 02:20:42;;;;;;;8.33;6.57;;;;;;;4.04;90.09;95658.34;1053117;28;20258;-66
2021/05/04 02:21:15;;;;;;;10.87;7.17;;;;;;;4.08;89.96;95662.13;1052806;28;20020;-66
2021/05/04 02:21:45;;;;;;;8.02;6.40;;;;;;;4.09;89.40;95653.13;1048696;28;20025;-66
2021/05/04 02:22:16;;;;;;;8.07;6.37;;;;;;;4.09;89.58;95653.13;1048773;28;20045;-66
2021/05/04 02:22:46;;;;;;;9.80;6.40;;;;;;;4.12;89.75;95655.31;1049053;28;20383;-66
2021/05/04 02:23:17;;;;;;;8.93;7.17;;;;;;;4.13;90.08;95656.13;1052949;28;20309;-67
2021/05/04 02:23:47;;;;;;;9.63;6.90;;;;;;;4.09;89.73;95649.69;1053156;28;20044;-66
2021/05/04 02:24:18;;;;;;;8.83;6.33;;;;;;;4.03;90.06;95655.94;1053114;28;20435;-67